Terminal Aerodrome Forecast
Issued by NWS Jackson, KY

Home | Current Version | Previous Version | Text Only | Print | Product List | Glossary On
Versions: 1 2 3 4 5 6 7 8 9 10 11 12 13 14 15 16 17 18 19 20 21 22 23 24
000
FTUS43 KJKL 151120
TAFLOZ
TAF
KLOZ 151120Z 1512/1612 05007KT 6SM -RA BR SCT003 OVC006
     FM151800 08008KT P6SM VCSH SCT007 OVC020
     FM152200 12006KT P6SM VCSH BKN035=

USA.gov is the U.S. government's official web portal to all federal, state and local government web resources and services.